createdAt,value
2022-08-03T00:00:46.387Z,83.00
2022-08-03T00:03:15.888Z,86.68
2022-08-03T00:06:04.841Z,87.50
2022-08-03T00:08:37.651Z,81.38
2022-08-03T00:11:10.445Z,88.50
2022-08-03T00:13:40.294Z,87.75
2022-08-03T00:16:12.174Z,91.25
2022-08-03T00:18:42.022Z,85.45
2022-08-03T00:21:11.939Z,95.45
2022-08-03T00:23:51.716Z,85.95
2022-08-03T00:26:23.955Z,80.38
2022-08-03T00:28:53.924Z,89.03
2022-08-03T00:31:51.385Z,93.50
2022-08-03T00:34:13.667Z,97.03
2022-08-03T00:36:43.441Z,88.18
2022-08-03T00:39:12.933Z,84.50
2022-08-03T00:41:42.607Z,87.72
2022-08-03T00:44:12.245Z,88.47
2022-08-03T00:46:42.130Z,88.75
2022-08-03T00:49:11.713Z,97.57
2022-08-03T00:51:41.393Z,96.82
2022-08-03T00:54:11.676Z,111.50
2022-08-03T00:56:59.858Z,118.63
2022-08-03T00:59:31.651Z,106.32
2022-08-03T01:02:01.400Z,108.13
2022-08-03T01:04:30.842Z,100.28
2022-08-03T01:07:27.125Z,104.47
2022-08-03T01:10:35.134Z,101.85
2022-08-03T01:14:01.462Z,106.38
2022-08-03T01:16:49.139Z,114.72
2022-08-03T01:19:27.625Z,104.22
2022-08-03T01:22:34.114Z,111.10
2022-08-03T01:25:17.491Z,92.50
2022-08-03T01:28:11.865Z,88.18
2022-08-03T01:30:45.130Z,98.30
2022-08-03T01:33:20.476Z,95.50
2022-08-03T01:36:01.012Z,96.43
2022-08-03T01:38:40.473Z,94.28
2022-08-03T01:41:14.637Z,94.82
2022-08-03T01:44:26.702Z,107.03
2022-08-03T01:46:48.794Z,90.40
2022-08-03T01:49:20.125Z,105.90
2022-08-03T01:52:02.699Z,113.68
2022-08-03T01:54:42.351Z,108.28
2022-08-03T01:57:13.282Z,104.53
2022-08-03T01:59:45.018Z,108.30
2022-08-03T02:02:32.763Z,105.47
2022-08-03T02:05:10.885Z,106.55
2022-08-03T02:07:44.021Z,105.32
2022-08-03T02:10:34.750Z,105.70
2022-08-03T02:13:09.724Z,96.60
2022-08-03T02:15:40.733Z,101.65
2022-08-03T02:18:29.919Z,98.45
2022-08-03T02:21:01.757Z,90.70
2022-08-03T02:23:41.944Z,91.68
2022-08-03T02:26:16.893Z,93.28
2022-08-03T02:28:53.627Z,92.53
2022-08-03T02:31:29.120Z,91.18
2022-08-03T02:34:04.227Z,77.70
2022-08-03T02:36:38.675Z,81.30
2022-08-03T02:39:12.795Z,120.80
2022-08-03T02:41:53.960Z,93.13
2022-08-03T02:44:28.298Z,88.05
2022-08-03T02:47:02.273Z,73.13
2022-08-03T02:49:49.500Z,85.18
2022-08-03T02:52:24.789Z,90.65
2022-08-03T02:54:57.870Z,87.38
2022-08-03T02:57:30.030Z,84.65
2022-08-03T03:00:01.373Z,93.07
2022-08-03T03:02:31.649Z,98.60
2022-08-03T03:05:55.339Z,91.28
2022-08-03T03:07:54.439Z,79.38
2022-08-03T03:10:26.194Z,91.57
2022-08-03T03:12:59.986Z,95.47
2022-08-03T03:15:32.241Z,85.45
2022-08-03T03:18:03.170Z,77.15
2022-08-03T03:20:34.804Z,79.45
2022-08-03T03:23:05.334Z,70.15
2022-08-03T03:25:35.644Z,71.80
2022-08-03T03:28:06.597Z,66.78
2022-08-03T03:30:36.153Z,61.60
2022-08-03T03:33:06.481Z,66.22
2022-08-03T03:35:38.737Z,51.33
2022-08-03T03:38:09.590Z,52.65
2022-08-03T03:40:41.125Z,51.75
2022-08-03T03:43:12.173Z,52.83
2022-08-03T03:45:44.755Z,54.60
2022-08-03T03:48:15.150Z,47.45
2022-08-03T03:50:46.185Z,42.65
2022-08-03T03:53:16.944Z,43.70
2022-08-03T03:55:59.714Z,36.47
2022-08-03T03:58:33.923Z,38.30
2022-08-03T04:01:03.883Z,37.47
2022-08-03T04:03:33.463Z,49.63
2022-08-03T04:06:21.914Z,50.45
2022-08-03T04:09:21.004Z,51.22
2022-08-03T04:11:56.263Z,45.78
2022-08-03T04:14:34.208Z,55.17
2022-08-03T04:17:07.009Z,35.17
2022-08-03T04:19:49.020Z,43.10
2022-08-03T04:22:22.685Z,32.50
2022-08-03T04:25:04.784Z,45.30
2022-08-03T04:30:10.670Z,49.45
2022-08-03T04:32:45.481Z,44.75
2022-08-03T04:35:15.675Z,43.55
2022-08-03T04:37:50.756Z,51.03
2022-08-03T04:40:33.329Z,44.85
2022-08-03T04:43:07.046Z,37.63
2022-08-03T04:45:38.216Z,41.20
2022-08-03T04:48:08.540Z,37.20
2022-08-03T04:50:38.099Z,37.72
2022-08-03T04:53:08.489Z,41.92
2022-08-03T04:55:39.832Z,46.05
2022-08-03T04:58:09.346Z,48.60
2022-08-03T05:00:39.013Z,47.83
2022-08-03T05:03:20.570Z,45.45
2022-08-03T05:06:09.652Z,38.83
2022-08-03T05:08:47.030Z,36.53
2022-08-03T05:11:19.026Z,45.20
2022-08-03T05:13:49.801Z,49.05
2022-08-03T05:16:20.283Z,43.15
2022-08-03T05:18:49.877Z,29.80
2022-08-03T05:21:21.609Z,30.75
2022-08-03T05:23:51.463Z,35.25
2022-08-03T05:26:21.050Z,34.22
2022-08-03T05:28:51.567Z,32.95
2022-08-03T05:31:21.788Z,36.30
2022-08-03T05:33:51.755Z,48.40
2022-08-03T05:36:21.474Z,79.35
2022-08-03T05:38:51.038Z,104.43
2022-08-03T05:41:36.479Z,95.15
2022-08-03T05:44:07.025Z,76.53
2022-08-03T05:46:37.435Z,73.10
2022-08-03T05:49:07.331Z,72.72
2022-08-03T05:51:36.536Z,75.75
2022-08-03T05:54:06.759Z,70.45
2022-08-03T05:56:36.118Z,71.47
2022-08-03T05:59:22.704Z,65.63
2022-08-03T06:01:55.717Z,58.45
2022-08-03T06:04:25.372Z,67.13
2022-08-03T06:06:54.943Z,57.60
2022-08-03T06:09:24.246Z,57.13
2022-08-03T06:12:14.311Z,53.08
2022-08-03T06:14:43.869Z,56.90
2022-08-03T06:17:13.607Z,50.05
2022-08-03T06:19:44.840Z,51.80
2022-08-03T06:22:14.366Z,53.85
2022-08-03T06:24:53.292Z,58.47
2022-08-03T06:27:36.671Z,47.25
2022-08-03T06:30:08.695Z,48.45
2022-08-03T06:32:41.441Z,45.45
2022-08-03T06:35:21.797Z,60.95
2022-08-03T06:37:53.425Z,51.85
2022-08-03T06:40:32.270Z,51.53
2022-08-03T06:43:03.766Z,45.20
2022-08-03T06:45:36.547Z,49.60
2022-08-03T06:48:13.905Z,52.22
2022-08-03T06:50:45.521Z,48.88
2022-08-03T06:53:19.661Z,42.22
2022-08-03T06:55:54.358Z,38.10
2022-08-03T06:58:24.763Z,43.83
2022-08-03T07:00:54.876Z,43.95
2022-08-03T07:03:24.265Z,44.85
2022-08-03T07:05:53.560Z,53.22
2022-08-03T07:08:33.452Z,50.30
2022-08-03T07:11:04.141Z,51.38
2022-08-03T07:13:33.880Z,56.30
2022-08-03T07:16:03.448Z,51.30
2022-08-03T07:18:32.740Z,50.10
2022-08-03T07:21:02.416Z,45.95
2022-08-03T07:23:31.840Z,40.72
2022-08-03T07:26:01.564Z,45.65
2022-08-03T07:28:31.243Z,56.17
2022-08-03T07:31:00.817Z,49.45
2022-08-03T07:33:30.721Z,56.28
2022-08-03T07:36:00.451Z,46.45
2022-08-03T07:38:31.459Z,47.47
2022-08-03T07:41:01.004Z,45.97
2022-08-03T07:43:30.670Z,41.88
2022-08-03T07:46:00.147Z,43.58
2022-08-03T07:48:29.676Z,55.45
2022-08-03T07:50:59.376Z,46.45
2022-08-03T07:53:28.782Z,51.08
2022-08-03T07:55:58.439Z,61.92
2022-08-03T07:58:28.284Z,55.33
2022-08-03T08:00:57.781Z,73.78
2022-08-03T08:03:28.082Z,56.10
2022-08-03T08:06:19.358Z,51.75
2022-08-03T08:08:49.084Z,44.55
2022-08-03T08:11:18.950Z,38.95
2022-08-03T08:13:48.377Z,38.17
2022-08-03T08:16:18.257Z,38.30
2022-08-03T08:18:47.802Z,38.03
2022-08-03T08:21:17.297Z,40.17
2022-08-03T08:23:57.151Z,36.22
2022-08-03T08:26:27.564Z,40.50
2022-08-03T08:28:56.667Z,41.80
2022-08-03T08:31:26.235Z,37.90
2022-08-03T08:34:04.413Z,41.10
2022-08-03T08:36:36.006Z,39.15
2022-08-03T08:39:06.101Z,38.00
2022-08-03T08:41:35.938Z,34.65
2022-08-03T08:44:05.905Z,38.47
2022-08-03T08:46:35.948Z,37.45
2022-08-03T08:49:05.544Z,39.78
2022-08-03T08:51:59.695Z,36.35
2022-08-03T08:54:33.830Z,37.22
2022-08-03T08:57:26.584Z,34.78
2022-08-03T08:59:58.136Z,52.30
2022-08-03T09:02:31.150Z,42.50
2022-08-03T09:05:06.843Z,35.53
2022-08-03T09:07:37.242Z,33.42
2022-08-03T09:10:13.015Z,40.00
2022-08-03T09:12:48.316Z,38.28
2022-08-03T09:15:23.328Z,31.85
2022-08-03T09:17:57.577Z,31.02
2022-08-03T09:20:29.507Z,28.58
2022-08-03T09:23:24.968Z,21.60
2022-08-03T09:26:00.521Z,20.75
2022-08-03T09:29:01.152Z,15.25
2022-08-03T09:31:34.974Z,18.88
2022-08-03T09:34:07.049Z,19.20
2022-08-03T09:36:40.809Z,19.00
2022-08-03T09:39:13.273Z,21.42
2022-08-03T09:41:44.988Z,22.80
2022-08-03T09:44:25.333Z,27.00
2022-08-03T09:46:57.668Z,23.48
2022-08-03T09:49:27.404Z,35.47
2022-08-03T09:52:32.485Z,57.92
2022-08-03T09:54:52.971Z,34.10
2022-08-03T09:57:27.066Z,29.23
2022-08-03T10:00:08.415Z,40.88
2022-08-03T10:02:46.523Z,34.47
2022-08-03T10:05:19.619Z,34.10
2022-08-03T10:07:51.755Z,31.52
2022-08-03T10:10:30.347Z,47.97
2022-08-03T10:13:01.888Z,30.90
2022-08-03T10:16:23.842Z,33.97
2022-08-03T10:18:21.397Z,48.83
2022-08-03T10:21:04.380Z,41.35
2022-08-03T10:23:37.278Z,38.45
2022-08-03T10:26:09.824Z,44.97
2022-08-03T10:28:48.908Z,47.33
2022-08-03T10:31:22.317Z,49.13
2022-08-03T10:33:57.649Z,48.45
2022-08-03T10:36:32.759Z,45.78
2022-08-03T10:39:04.604Z,40.38
2022-08-03T10:41:48.247Z,32.75
2022-08-03T10:44:24.607Z,33.45
2022-08-03T10:46:54.966Z,50.20
2022-08-03T10:49:35.173Z,47.58
2022-08-03T10:52:13.102Z,33.40
2022-08-03T10:55:14.506Z,38.05
2022-08-03T10:57:58.632Z,32.65
2022-08-03T11:00:31.514Z,29.48
2022-08-03T11:03:12.961Z,41.35
2022-08-03T11:05:50.905Z,34.33
2022-08-03T11:08:31.009Z,27.73
2022-08-03T11:11:03.529Z,31.58
2022-08-03T11:13:34.966Z,32.58
2022-08-03T11:16:22.058Z,32.53
2022-08-03T11:19:19.623Z,32.40
2022-08-03T11:21:52.949Z,25.90
2022-08-03T11:24:48.585Z,34.60
2022-08-03T11:27:19.240Z,25.33
2022-08-03T11:30:10.019Z,40.83
2022-08-03T11:32:39.879Z,33.83
2022-08-03T11:35:16.516Z,60.63
2022-08-03T11:38:08.421Z,34.08
2022-08-03T11:40:37.998Z,35.17
2022-08-03T11:43:32.320Z,34.80
2022-08-03T11:46:09.060Z,30.45
2022-08-03T11:48:46.702Z,50.15
2022-08-03T11:51:23.888Z,52.13
2022-08-03T11:53:55.717Z,42.20
2022-08-03T11:56:25.477Z,35.25
2022-08-03T11:59:20.283Z,35.55
2022-08-03T12:01:47.294Z,33.05
2022-08-03T12:04:17.282Z,35.85
2022-08-03T12:07:03.523Z,36.03
2022-08-03T12:09:35.384Z,41.20
2022-08-03T12:12:05.435Z,31.17
2022-08-03T12:14:49.910Z,49.38
2022-08-03T12:17:22.222Z,43.55
2022-08-03T12:19:52.303Z,38.85
2022-08-03T12:22:34.201Z,22.60
2022-08-03T12:25:03.804Z,30.20
2022-08-03T12:27:33.815Z,24.02
2022-08-03T12:30:04.599Z,53.65
2022-08-03T12:32:33.994Z,29.42
2022-08-03T12:35:05.772Z,40.38
2022-08-03T12:37:35.599Z,40.28
2022-08-03T12:40:10.630Z,35.65
2022-08-03T12:42:42.110Z,48.38
2022-08-03T12:45:40.974Z,37.78
2022-08-03T12:48:13.041Z,36.60
2022-08-03T12:50:42.752Z,27.85
2022-08-03T12:53:12.370Z,26.23
2022-08-03T12:55:57.574Z,22.85
2022-08-03T12:58:38.069Z,32.38
2022-08-03T13:01:10.770Z,23.40
2022-08-03T13:03:45.834Z,39.10
2022-08-03T13:06:27.919Z,23.65
2022-08-03T13:09:08.950Z,34.75
2022-08-03T13:11:57.511Z,31.17
2022-08-03T13:14:28.226Z,36.15
2022-08-03T13:16:57.576Z,32.03
2022-08-03T13:19:26.996Z,35.05
2022-08-03T13:22:03.265Z,30.05
2022-08-03T13:24:35.425Z,46.53
2022-08-03T13:28:02.292Z,32.58
2022-08-03T13:29:59.053Z,53.53
2022-08-03T13:32:40.204Z,42.47
2022-08-03T13:35:30.985Z,43.78
2022-08-03T13:38:00.442Z,48.03
2022-08-03T13:40:36.761Z,45.15
2022-08-03T13:43:11.439Z,42.73
2022-08-03T13:45:42.864Z,58.78
2022-08-03T13:48:15.395Z,52.65
2022-08-03T13:51:21.847Z,67.72
2022-08-03T13:53:53.408Z,56.53
2022-08-03T13:56:23.245Z,60.42
2022-08-03T13:58:52.575Z,53.78
2022-08-03T14:01:53.677Z,61.38
2022-08-03T14:04:21.824Z,57.90
2022-08-03T14:06:52.122Z,79.45
2022-08-03T14:09:21.796Z,73.13
2022-08-03T14:12:07.045Z,75.38
2022-08-03T14:14:37.507Z,82.38
2022-08-03T14:17:07.008Z,88.25
2022-08-03T14:19:53.392Z,78.35
2022-08-03T14:22:24.027Z,79.28
2022-08-03T14:24:53.348Z,68.40
2022-08-03T14:27:23.106Z,63.03
2022-08-03T14:29:52.924Z,70.05
2022-08-03T14:32:22.675Z,74.57
2022-08-03T14:34:52.021Z,69.70
2022-08-03T14:37:21.871Z,67.00
2022-08-03T14:39:59.928Z,68.93
2022-08-03T14:42:30.245Z,79.43
2022-08-03T14:45:04.614Z,69.65
2022-08-03T14:49:00.889Z,63.58
2022-08-03T14:50:30.177Z,72.72
2022-08-03T14:55:38.827Z,76.20
2022-08-03T14:58:21.852Z,74.57
2022-08-03T15:00:53.349Z,82.15
2022-08-03T15:03:26.907Z,73.60
2022-08-03T15:05:58.206Z,60.70
2022-08-03T15:08:28.419Z,48.03
2022-08-03T15:10:57.751Z,51.55
2022-08-03T15:13:27.962Z,49.35
2022-08-03T15:15:58.971Z,55.28
2022-08-03T15:18:28.515Z,46.03
2022-08-03T15:20:57.516Z,43.83
2022-08-03T15:23:27.655Z,41.47
2022-08-03T15:26:04.010Z,47.92
2022-08-03T15:28:50.377Z,50.90
2022-08-03T15:31:24.518Z,50.10
2022-08-03T15:33:53.846Z,50.17
2022-08-03T15:36:23.829Z,51.08
2022-08-03T15:38:54.587Z,43.80
2022-08-03T15:41:24.214Z,49.63
2022-08-03T15:43:54.557Z,41.85
2022-08-03T15:46:29.626Z,38.50
2022-08-03T15:49:00.356Z,45.72
2022-08-03T15:51:29.787Z,42.47
2022-08-03T15:53:59.273Z,45.90
2022-08-03T15:56:28.629Z,37.75
2022-08-03T15:59:13.299Z,44.30
2022-08-03T16:01:44.199Z,51.22
2022-08-03T16:04:13.836Z,44.08
2022-08-03T16:06:43.085Z,50.83
2022-08-03T16:09:23.521Z,39.70
2022-08-03T16:12:02.319Z,43.90
2022-08-03T16:14:38.928Z,45.63
2022-08-03T16:17:16.401Z,45.03
2022-08-03T16:19:45.584Z,41.60
2022-08-03T16:22:15.134Z,54.13
2022-08-03T16:24:44.449Z,55.00
2022-08-03T16:27:36.596Z,44.10
2022-08-03T16:30:05.040Z,46.35
2022-08-03T16:32:35.185Z,52.95
2022-08-03T16:35:04.478Z,55.85
2022-08-03T16:37:38.641Z,60.95
2022-08-03T16:40:17.670Z,51.15
2022-08-03T16:42:49.101Z,43.03
2022-08-03T16:45:19.190Z,45.80
2022-08-03T16:48:01.276Z,39.85
2022-08-03T16:50:35.437Z,49.70
2022-08-03T16:53:10.126Z,52.42
2022-08-03T16:55:54.136Z,47.47
2022-08-03T16:58:41.494Z,42.40
2022-08-03T17:01:21.542Z,49.05
2022-08-03T17:04:03.072Z,42.05
2022-08-03T17:06:44.943Z,42.65
2022-08-03T17:09:18.127Z,46.13
2022-08-03T17:11:50.540Z,51.10
2022-08-03T17:14:28.280Z,58.83
2022-08-03T17:17:02.486Z,35.00
2022-08-03T17:19:37.570Z,44.85
2022-08-03T17:22:14.271Z,42.70
2022-08-03T17:24:53.525Z,49.95
2022-08-03T17:28:48.946Z,46.05
2022-08-03T17:30:21.128Z,59.78
2022-08-03T17:32:57.489Z,46.95
2022-08-03T17:35:36.459Z,63.53
2022-08-03T17:38:13.587Z,53.47
2022-08-03T17:40:49.964Z,35.60
2022-08-03T17:43:44.365Z,38.30
2022-08-03T17:46:12.271Z,44.92
2022-08-03T17:48:43.003Z,49.95
2022-08-03T17:51:32.325Z,46.92
2022-08-03T17:54:18.482Z,45.50
2022-08-03T17:57:27.269Z,39.25
2022-08-03T18:00:32.662Z,51.78
2022-08-03T18:03:22.922Z,42.92
2022-08-03T18:06:11.500Z,51.83
2022-08-03T18:08:57.578Z,36.08
2022-08-03T18:11:35.586Z,48.55
2022-08-03T18:14:23.852Z,43.67
2022-08-03T18:17:17.024Z,55.97
2022-08-03T18:22:37.739Z,55.47
2022-08-03T18:25:13.251Z,51.50
2022-08-03T18:27:45.726Z,61.22
2022-08-03T18:30:16.785Z,49.42
2022-08-03T18:33:00.842Z,44.95
2022-08-03T18:35:53.689Z,62.67
2022-08-03T18:38:24.793Z,54.90
2022-08-03T18:40:54.907Z,49.80
2022-08-03T18:43:46.375Z,60.13
2022-08-03T18:46:52.735Z,53.50
2022-08-03T18:49:53.726Z,48.75
2022-08-03T18:52:52.857Z,55.67
2022-08-03T18:55:33.668Z,59.58
2022-08-03T18:58:17.826Z,60.42
2022-08-03T19:01:03.482Z,56.20
2022-08-03T19:03:42.875Z,56.15
2022-08-03T19:06:21.131Z,58.13
2022-08-03T19:09:05.433Z,66.90
2022-08-03T19:12:12.741Z,61.38
2022-08-03T19:14:50.727Z,55.45
2022-08-03T19:17:23.456Z,57.20
2022-08-03T19:20:01.567Z,58.42
2022-08-03T19:22:32.151Z,55.35
2022-08-03T19:25:03.714Z,55.40
2022-08-03T19:27:33.761Z,57.22
2022-08-03T19:30:14.134Z,62.97
2022-08-03T19:32:53.520Z,64.70
2022-08-03T19:35:27.461Z,59.60
2022-08-03T19:38:12.907Z,48.25
2022-08-03T19:40:51.127Z,61.60
2022-08-03T19:43:32.922Z,50.30
2022-08-03T19:46:21.192Z,56.47
2022-08-03T19:48:57.177Z,61.85
2022-08-03T19:52:00.654Z,58.67
2022-08-03T19:54:29.854Z,52.63
2022-08-03T19:57:04.755Z,54.47
2022-08-03T20:02:26.598Z,53.10
2022-08-03T20:04:59.806Z,67.72
2022-08-03T20:07:34.308Z,67.65
2022-08-03T20:10:06.985Z,63.92
2022-08-03T20:12:39.393Z,53.15
2022-08-03T20:17:54.398Z,56.25
2022-08-03T20:20:34.780Z,60.15
2022-08-03T20:23:12.797Z,49.35
2022-08-03T20:25:57.151Z,55.45
2022-08-03T20:28:51.401Z,64.70
2022-08-03T20:31:32.115Z,55.03
2022-08-03T20:34:09.130Z,48.92
2022-08-03T20:36:38.706Z,50.55
2022-08-03T20:39:09.128Z,51.03
2022-08-03T20:41:39.995Z,55.60
2022-08-03T20:44:09.571Z,48.47
2022-08-03T20:46:56.300Z,52.53
2022-08-03T20:49:29.581Z,61.13
2022-08-03T20:52:18.717Z,68.25
2022-08-03T20:54:49.540Z,55.83
2022-08-03T20:57:19.663Z,54.83
2022-08-03T20:59:51.395Z,55.65
2022-08-03T21:02:40.792Z,58.53
2022-08-03T21:05:11.877Z,49.93
2022-08-03T21:08:05.050Z,64.28
2022-08-03T21:10:42.099Z,50.38
2022-08-03T21:12:57.649Z,37.97
2022-08-03T21:16:12.099Z,53.65
2022-08-03T21:18:53.586Z,52.83
2022-08-03T21:21:25.207Z,50.08
2022-08-03T21:23:56.608Z,63.72
2022-08-03T21:26:28.484Z,51.00
2022-08-03T21:28:58.554Z,55.22
2022-08-03T21:31:28.487Z,56.30
2022-08-03T21:34:01.511Z,49.90
2022-08-03T21:36:33.550Z,52.60
2022-08-03T21:39:06.453Z,52.22
2022-08-03T21:41:37.251Z,58.58
2022-08-03T21:44:07.440Z,40.70
2022-08-03T21:46:42.137Z,60.08
2022-08-03T21:49:51.798Z,48.83
2022-08-03T21:52:07.343Z,56.33
2022-08-03T21:54:39.624Z,56.38
2022-08-03T21:57:30.726Z,39.05
2022-08-03T22:00:16.515Z,42.17
2022-08-03T22:02:58.250Z,51.40
2022-08-03T22:05:43.715Z,46.83
2022-08-03T22:08:17.172Z,47.45
2022-08-03T22:10:47.624Z,41.00
2022-08-03T22:13:43.082Z,40.58
2022-08-03T22:16:09.870Z,36.90
2022-08-03T22:18:41.638Z,41.40
2022-08-03T22:21:28.000Z,37.95
2022-08-03T22:24:07.572Z,36.88
2022-08-03T22:26:41.175Z,58.75
2022-08-03T22:29:10.925Z,73.85
2022-08-03T22:31:59.138Z,62.85
2022-08-03T22:34:30.989Z,43.35
2022-08-03T22:37:05.128Z,51.17
2022-08-03T22:39:36.576Z,42.38
2022-08-03T22:42:07.625Z,41.55
2022-08-03T22:44:38.102Z,37.58
2022-08-03T22:47:08.315Z,50.33
2022-08-03T22:49:39.029Z,58.00
2022-08-03T22:52:09.755Z,40.10
2022-08-03T22:54:39.569Z,51.28
2022-08-03T22:57:10.153Z,37.47
2022-08-03T22:59:42.088Z,45.67
2022-08-03T23:02:21.780Z,46.17
2022-08-03T23:04:53.519Z,48.67
2022-08-03T23:07:32.682Z,47.22
2022-08-03T23:10:08.276Z,42.30
2022-08-03T23:12:39.609Z,42.50
2022-08-03T23:15:14.012Z,43.58
2022-08-03T23:17:59.001Z,44.30
2022-08-03T23:20:29.211Z,37.80
2022-08-03T23:22:59.283Z,45.72
2022-08-03T23:25:29.695Z,59.40
2022-08-03T23:28:04.848Z,41.47
2022-08-03T23:30:39.583Z,40.22
2022-08-03T23:33:14.794Z,45.20
2022-08-03T23:36:29.821Z,48.95
2022-08-03T23:38:52.462Z,52.95
2022-08-03T23:41:22.656Z,56.58
2022-08-03T23:43:54.422Z,40.00
2022-08-03T23:46:25.852Z,56.92
2022-08-03T23:48:56.685Z,47.40
2022-08-03T23:51:32.567Z,63.22
2022-08-03T23:54:15.210Z,66.45
2022-08-03T23:57:06.430Z,53.03
2022-08-03T23:59:54.088Z,46.88
